KMCF/MCF METAR and TAF weather

Enter ICAO airport designator
Station Type Date Time Source
KMCF METAR 2021/05/12 22:56 UTC NOAA

KMCF 122256Z AUTO 30009G15KT 10SM FEW220 29/19 A2999 RMK AO2 SLP158 T02850191 FZRANO $


Station Type Date Time Source
KMCF Decoded METAR 2021/05/12 22:56 UTC NOAA

Macdill Air Force Base, Fl., FL, United States (KMCF) 27-51N 082-30W 4M
May 12, 2021 - 06:56 PM EDT / 2021.05.12 2256 UTC
Wind: from the WNW (300 degrees) at 10 MPH (9 KT) gusting to 17 MPH (15 KT):0
Visibility: 10 mile(s):0
Sky conditions: mostly clear
Temperature: 83.3 F (28.5 C)
Dew Point: 66.4 F (19.1 C)
Relative Humidity: 56%
Pressure (altimeter): 29.99 in. Hg (1015 hPa)
ob: KMCF 122256Z AUTO 30009G15KT 10SM FEW220 29/19 A2999 RMK AO2 SLP158 T02850191 FZRANO
cycle: 23

Station Type Date Time Source
KMCF TAF 2021/05/12 17:03 UTC NOAA

TAF TAF KMCF 121700Z 1217/1323 22009KT 9999 SCT030 QNH2997INS
BECMG 1223/1224 30015KT 9999 SCT210 QNH3001INS
BECMG 1305/1306 VRB06KT 8000 BR BKN010 QNH2999INS
BECMG 1316/1317 35009KT 9000 -SHRA BKN050 QNH3000INS TX31/1218Z TN23/1308Z

Example: see airport list